sensor_id;sensor_type;location;lat;lon;timestamp;P1;durP1;ratioP1;P2;durP2;ratioP2
7667;SDS011;3876;42.204;24.686;2024-02-21T00:00:13;4.10;;;3.27;;
7667;SDS011;3876;42.204;24.686;2024-02-21T00:02:42;6.63;;;3.47;;
7667;SDS011;3876;42.204;24.686;2024-02-21T00:05:09;5.70;;;4.87;;
7667;SDS011;3876;42.204;24.686;2024-02-21T00:07:35;3.97;;;3.77;;
7667;SDS011;3876;42.204;24.686;2024-02-21T00:10:02;5.33;;;3.80;;
7667;SDS011;3876;42.204;24.686;2024-02-21T00:12:29;5.50;;;5.03;;
7667;SDS011;3876;42.204;24.686;2024-02-21T00:14:57;3.93;;;3.30;;
7667;SDS011;3876;42.204;24.686;2024-02-21T00:17:24;4.80;;;4.50;;
7667;SDS011;3876;42.204;24.686;2024-02-21T00:19:51;6.07;;;4.77;;
7667;SDS011;3876;42.204;24.686;2024-02-21T00:22:18;4.30;;;4.10;;
7667;SDS011;3876;42.204;24.686;2024-02-21T00:24:44;9.03;;;4.77;;
7667;SDS011;3876;42.204;24.686;2024-02-21T00:27:11;11.73;;;4.07;;
7667;SDS011;3876;42.204;24.686;2024-02-21T00:29:38;5.73;;;3.67;;
7667;SDS011;3876;42.204;24.686;2024-02-21T00:32:06;6.60;;;2.87;;
7667;SDS011;3876;42.204;24.686;2024-02-21T00:34:32;3.07;;;2.53;;
7667;SDS011;3876;42.204;24.686;2024-02-21T00:37:00;4.77;;;4.47;;
7667;SDS011;3876;42.204;24.686;2024-02-21T00:39:27;11.70;;;3.17;;
7667;SDS011;3876;42.204;24.686;2024-02-21T00:41:54;3.37;;;3.17;;
7667;SDS011;3876;42.204;24.686;2024-02-21T00:44:20;8.43;;;3.80;;
7667;SDS011;3876;42.204;24.686;2024-02-21T00:46:47;8.47;;;4.30;;
7667;SDS011;3876;42.204;24.686;2024-02-21T00:49:15;7.70;;;4.37;;
7667;SDS011;3876;42.204;24.686;2024-02-21T00:51:42;5.90;;;3.43;;
7667;SDS011;3876;42.204;24.686;2024-02-21T00:54:08;3.70;;;3.40;;
7667;SDS011;3876;42.204;24.686;2024-02-21T00:56:35;3.40;;;3.17;;
7667;SDS011;3876;42.204;24.686;2024-02-21T00:59:02;7.90;;;4.13;;
7667;SDS011;3876;42.204;24.686;2024-02-21T01:01:28;4.43;;;4.13;;
7667;SDS011;3876;42.204;24.686;2024-02-21T01:03:55;10.07;;;5.13;;
7667;SDS011;3876;42.204;24.686;2024-02-21T01:06:23;3.07;;;2.07;;
7667;SDS011;3876;42.204;24.686;2024-02-21T01:08:50;4.13;;;3.87;;
7667;SDS011;3876;42.204;24.686;2024-02-21T01:11:17;5.80;;;4.47;;
7667;SDS011;3876;42.204;24.686;2024-02-21T01:13:44;10.87;;;4.30;;
7667;SDS011;3876;42.204;24.686;2024-02-21T01:16:10;2.97;;;2.77;;
7667;SDS011;3876;42.204;24.686;2024-02-21T01:18:37;9.10;;;4.17;;
7667;SDS011;3876;42.204;24.686;2024-02-21T01:21:05;4.80;;;4.30;;
7667;SDS011;3876;42.204;24.686;2024-02-21T01:23:34;4.47;;;3.77;;
7667;SDS011;3876;42.204;24.686;2024-02-21T01:26:02;6.10;;;3.17;;
7667;SDS011;3876;42.204;24.686;2024-02-21T01:28:29;3.10;;;2.83;;
7667;SDS011;3876;42.204;24.686;2024-02-21T01:30:55;6.07;;;4.17;;
7667;SDS011;3876;42.204;24.686;2024-02-21T01:33:22;5.10;;;3.73;;
7667;SDS011;3876;42.204;24.686;2024-02-21T01:35:49;5.60;;;3.83;;
7667;SDS011;3876;42.204;24.686;2024-02-21T01:38:16;4.70;;;2.73;;
7667;SDS011;3876;42.204;24.686;2024-02-21T01:40:44;8.13;;;3.17;;
7667;SDS011;3876;42.204;24.686;2024-02-21T01:43:16;3.03;;;2.73;;
7667;SDS011;3876;42.204;24.686;2024-02-21T01:45:45;5.43;;;3.67;;
7667;SDS011;3876;42.204;24.686;2024-02-21T01:48:16;4.43;;;4.03;;
7667;SDS011;3876;42.204;24.686;2024-02-21T01:50:43;7.10;;;3.80;;
7667;SDS011;3876;42.204;24.686;2024-02-21T01:53:10;7.57;;;4.77;;
7667;SDS011;3876;42.204;24.686;2024-02-21T01:55:44;6.30;;;4.43;;
7667;SDS011;3876;42.204;24.686;2024-02-21T01:58:11;5.50;;;4.40;;
7667;SDS011;3876;42.204;24.686;2024-02-21T02:00:38;9.20;;;3.93;;
7667;SDS011;3876;42.204;24.686;2024-02-21T02:03:08;4.63;;;3.70;;
7667;SDS011;3876;42.204;24.686;2024-02-21T02:05:41;2.53;;;2.43;;
7667;SDS011;3876;42.204;24.686;2024-02-21T02:08:09;7.23;;;5.60;;
7667;SDS011;3876;42.204;24.686;2024-02-21T02:10:36;5.43;;;3.77;;
7667;SDS011;3876;42.204;24.686;2024-02-21T02:13:04;5.47;;;3.60;;
7667;SDS011;3876;42.204;24.686;2024-02-21T02:15:37;2.60;;;2.40;;
7667;SDS011;3876;42.204;24.686;2024-02-21T02:18:04;5.13;;;2.83;;
7667;SDS011;3876;42.204;24.686;2024-02-21T02:20:31;10.63;;;4.53;;
7667;SDS011;3876;42.204;24.686;2024-02-21T02:22:58;6.43;;;3.20;;
7667;SDS011;3876;42.204;24.686;2024-02-21T02:25:27;7.00;;;4.90;;
7667;SDS011;3876;42.204;24.686;2024-02-21T02:27:53;3.33;;;2.87;;
7667;SDS011;3876;42.204;24.686;2024-02-21T02:30:20;8.00;;;4.73;;
7667;SDS011;3876;42.204;24.686;2024-02-21T02:32:47;5.73;;;3.70;;
7667;SDS011;3876;42.204;24.686;2024-02-21T02:35:14;3.37;;;3.03;;
7667;SDS011;3876;42.204;24.686;2024-02-21T02:37:47;9.30;;;4.93;;
7667;SDS011;3876;42.204;24.686;2024-02-21T02:40:14;6.63;;;3.63;;
7667;SDS011;3876;42.204;24.686;2024-02-21T02:42:42;10.80;;;4.23;;
7667;SDS011;3876;42.204;24.686;2024-02-21T02:45:09;8.00;;;3.93;;
7667;SDS011;3876;42.204;24.686;2024-02-21T02:47:36;7.63;;;4.30;;
7667;SDS011;3876;42.204;24.686;2024-02-21T02:50:03;10.07;;;5.43;;
7667;SDS011;3876;42.204;24.686;2024-02-21T02:52:31;10.60;;;6.27;;
7667;SDS011;3876;42.204;24.686;2024-02-21T02:54:58;11.10;;;3.77;;
7667;SDS011;3876;42.204;24.686;2024-02-21T02:57:24;4.60;;;4.17;;
7667;SDS011;3876;42.204;24.686;2024-02-21T02:59:52;11.27;;;3.57;;
7667;SDS011;3876;42.204;24.686;2024-02-21T03:02:19;3.53;;;3.03;;
7667;SDS011;3876;42.204;24.686;2024-02-21T03:04:45;7.83;;;4.20;;
7667;SDS011;3876;42.204;24.686;2024-02-21T03:07:11;10.57;;;3.90;;
7667;SDS011;3876;42.204;24.686;2024-02-21T03:09:39;7.23;;;4.33;;
7667;SDS011;3876;42.204;24.686;2024-02-21T03:12:05;4.23;;;3.97;;
7667;SDS011;3876;42.204;24.686;2024-02-21T03:14:32;7.40;;;3.27;;
7667;SDS011;3876;42.204;24.686;2024-02-21T03:17:01;11.00;;;4.47;;
7667;SDS011;3876;42.204;24.686;2024-02-21T03:19:28;4.50;;;3.83;;
7667;SDS011;3876;42.204;24.686;2024-02-21T03:21:55;4.53;;;4.13;;
7667;SDS011;3876;42.204;24.686;2024-02-21T03:26:51;3.37;;;3.10;;
7667;SDS011;3876;42.204;24.686;2024-02-21T03:29:18;8.50;;;5.03;;
7667;SDS011;3876;42.204;24.686;2024-02-21T03:31:44;4.53;;;4.03;;
7667;SDS011;3876;42.204;24.686;2024-02-21T03:34:12;4.13;;;3.93;;
7667;SDS011;3876;42.204;24.686;2024-02-21T03:36:39;4.87;;;4.47;;
7667;SDS011;3876;42.204;24.686;2024-02-21T03:39:06;4.37;;;4.03;;
7667;SDS011;3876;42.204;24.686;2024-02-21T03:41:34;5.73;;;4.13;;
7667;SDS011;3876;42.204;24.686;2024-02-21T03:44:01;7.13;;;4.77;;
7667;SDS011;3876;42.204;24.686;2024-02-21T03:46:27;6.17;;;3.13;;
7667;SDS011;3876;42.204;24.686;2024-02-21T03:48:54;8.07;;;3.60;;
7667;SDS011;3876;42.204;24.686;2024-02-21T03:51:22;4.83;;;2.97;;
7667;SDS011;3876;42.204;24.686;2024-02-21T03:53:49;7.97;;;4.10;;
7667;SDS011;3876;42.204;24.686;2024-02-21T03:56:15;6.33;;;3.77;;
7667;SDS011;3876;42.204;24.686;2024-02-21T03:58:42;6.80;;;3.13;;
7667;SDS011;3876;42.204;24.686;2024-02-21T04:01:09;5.67;;;4.40;;
7667;SDS011;3876;42.204;24.686;2024-02-21T04:03:35;8.90;;;5.67;;
7667;SDS011;3876;42.204;24.686;2024-02-21T04:06:03;11.73;;;4.27;;
7667;SDS011;3876;42.204;24.686;2024-02-21T04:08:31;7.60;;;4.20;;
7667;SDS011;3876;42.204;24.686;2024-02-21T04:10:58;3.83;;;2.67;;
7667;SDS011;3876;42.204;24.686;2024-02-21T04:13:24;5.77;;;2.60;;
7667;SDS011;3876;42.204;24.686;2024-02-21T04:15:51;5.73;;;4.17;;
7667;SDS011;3876;42.204;24.686;2024-02-21T04:18:18;4.43;;;3.87;;
7667;SDS011;3876;42.204;24.686;2024-02-21T04:20:45;2.30;;;1.93;;
7667;SDS011;3876;42.204;24.686;2024-02-21T04:23:12;7.50;;;2.70;;
7667;SDS011;3876;42.204;24.686;2024-02-21T04:25:40;4.70;;;2.90;;
7667;SDS011;3876;42.204;24.686;2024-02-21T04:28:07;5.70;;;4.27;;
7667;SDS011;3876;42.204;24.686;2024-02-21T04:30:34;4.70;;;2.97;;
7667;SDS011;3876;42.204;24.686;2024-02-21T04:33:01;5.40;;;3.43;;
7667;SDS011;3876;42.204;24.686;2024-02-21T04:35:28;3.90;;;3.60;;
7667;SDS011;3876;42.204;24.686;2024-02-21T04:37:55;3.47;;;3.00;;
7667;SDS011;3876;42.204;24.686;2024-02-21T04:40:22;6.23;;;4.23;;
7667;SDS011;3876;42.204;24.686;2024-02-21T04:42:50;4.47;;;4.17;;
7667;SDS011;3876;42.204;24.686;2024-02-21T04:45:16;4.73;;;4.37;;
7667;SDS011;3876;42.204;24.686;2024-02-21T04:47:43;11.03;;;3.60;;
7667;SDS011;3876;42.204;24.686;2024-02-21T04:50:10;5.63;;;3.60;;
7667;SDS011;3876;42.204;24.686;2024-02-21T04:52:38;2.57;;;2.47;;
7667;SDS011;3876;42.204;24.686;2024-02-21T04:55:04;9.13;;;3.03;;
7667;SDS011;3876;42.204;24.686;2024-02-21T04:57:32;7.83;;;4.33;;
7667;SDS011;3876;42.204;24.686;2024-02-21T05:00:00;8.33;;;3.67;;
7667;SDS011;3876;42.204;24.686;2024-02-21T05:02:28;6.53;;;4.03;;
7667;SDS011;3876;42.204;24.686;2024-02-21T05:04:55;6.87;;;3.40;;
7667;SDS011;3876;42.204;24.686;2024-02-21T05:07:22;4.73;;;4.33;;
7667;SDS011;3876;42.204;24.686;2024-02-21T05:09:48;4.73;;;4.33;;
7667;SDS011;3876;42.204;24.686;2024-02-21T05:12:15;4.17;;;3.87;;
7667;SDS011;3876;42.204;24.686;2024-02-21T05:14:42;3.47;;;3.10;;
7667;SDS011;3876;42.204;24.686;2024-02-21T05:17:10;4.47;;;2.70;;
7667;SDS011;3876;42.204;24.686;2024-02-21T05:19:36;12.30;;;5.17;;
7667;SDS011;3876;42.204;24.686;2024-02-21T05:22:03;2.97;;;2.77;;
7667;SDS011;3876;42.204;24.686;2024-02-21T05:24:30;12.03;;;3.23;;
7667;SDS011;3876;42.204;24.686;2024-02-21T05:26:57;4.43;;;3.83;;
7667;SDS011;3876;42.204;24.686;2024-02-21T05:29:23;2.87;;;2.77;;
7667;SDS011;3876;42.204;24.686;2024-02-21T05:31:56;3.13;;;3.03;;
7667;SDS011;3876;42.204;24.686;2024-02-21T05:34:25;6.93;;;3.27;;
7667;SDS011;3876;42.204;24.686;2024-02-21T05:36:52;4.10;;;3.80;;
7667;SDS011;3876;42.204;24.686;2024-02-21T05:39:19;5.00;;;3.57;;
7667;SDS011;3876;42.204;24.686;2024-02-21T05:41:47;7.53;;;4.63;;
7667;SDS011;3876;42.204;24.686;2024-02-21T05:44:15;5.20;;;2.97;;
7667;SDS011;3876;42.204;24.686;2024-02-21T05:46:41;3.57;;;3.37;;
7667;SDS011;3876;42.204;24.686;2024-02-21T05:49:08;5.23;;;4.20;;
7667;SDS011;3876;42.204;24.686;2024-02-21T05:51:36;4.03;;;3.87;;
7667;SDS011;3876;42.204;24.686;2024-02-21T05:54:03;6.43;;;2.27;;
7667;SDS011;3876;42.204;24.686;2024-02-21T05:56:30;4.53;;;4.13;;
7667;SDS011;3876;42.204;24.686;2024-02-21T05:58:56;3.97;;;3.03;;
7667;SDS011;3876;42.204;24.686;2024-02-21T06:01:23;3.00;;;2.73;;
7667;SDS011;3876;42.204;24.686;2024-02-21T06:03:50;3.80;;;2.50;;
7667;SDS011;3876;42.204;24.686;2024-02-21T06:06:17;4.13;;;3.63;;
7667;SDS011;3876;42.204;24.686;2024-02-21T06:08:45;6.77;;;3.50;;
7667;SDS011;3876;42.204;24.686;2024-02-21T06:11:12;3.03;;;2.93;;
7667;SDS011;3876;42.204;24.686;2024-02-21T06:13:40;2.90;;;2.70;;
7667;SDS011;3876;42.204;24.686;2024-02-21T06:16:07;3.53;;;2.90;;
7667;SDS011;3876;42.204;24.686;2024-02-21T06:18:34;5.93;;;2.70;;
7667;SDS011;3876;42.204;24.686;2024-02-21T06:21:03;3.40;;;3.20;;
7667;SDS011;3876;42.204;24.686;2024-02-21T06:23:29;7.07;;;2.83;;
7667;SDS011;3876;42.204;24.686;2024-02-21T06:25:57;9.30;;;3.90;;
7667;SDS011;3876;42.204;24.686;2024-02-21T06:28:24;4.57;;;3.53;;
7667;SDS011;3876;42.204;24.686;2024-02-21T06:30:51;13.90;;;4.23;;
7667;SDS011;3876;42.204;24.686;2024-02-21T06:33:18;6.27;;;4.70;;
7667;SDS011;3876;42.204;24.686;2024-02-21T06:35:47;13.43;;;3.77;;
7667;SDS011;3876;42.204;24.686;2024-02-21T06:38:17;4.03;;;3.67;;
7667;SDS011;3876;42.204;24.686;2024-02-21T06:40:44;16.87;;;4.70;;
7667;SDS011;3876;42.204;24.686;2024-02-21T06:43:16;5.53;;;4.83;;
7667;SDS011;3876;42.204;24.686;2024-02-21T06:45:43;5.73;;;3.50;;
7667;SDS011;3876;42.204;24.686;2024-02-21T06:48:12;7.13;;;5.13;;
7667;SDS011;3876;42.204;24.686;2024-02-21T06:50:39;8.90;;;7.83;;
7667;SDS011;3876;42.204;24.686;2024-02-21T06:53:06;8.13;;;4.23;;
7667;SDS011;3876;42.204;24.686;2024-02-21T06:55:32;7.33;;;4.33;;
7667;SDS011;3876;42.204;24.686;2024-02-21T06:57:59;5.33;;;3.17;;
7667;SDS011;3876;42.204;24.686;2024-02-21T07:00:28;9.80;;;4.07;;
7667;SDS011;3876;42.204;24.686;2024-02-21T07:02:55;5.77;;;3.37;;
7667;SDS011;3876;42.204;24.686;2024-02-21T07:05:21;11.50;;;4.73;;
7667;SDS011;3876;42.204;24.686;2024-02-21T07:07:48;7.33;;;4.60;;
7667;SDS011;3876;42.204;24.686;2024-02-21T07:10:15;10.27;;;5.93;;
7667;SDS011;3876;42.204;24.686;2024-02-21T07:12:41;4.60;;;3.97;;
7667;SDS011;3876;42.204;24.686;2024-02-21T07:15:08;9.43;;;3.90;;
7667;SDS011;3876;42.204;24.686;2024-02-21T07:17:36;6.13;;;4.13;;
7667;SDS011;3876;42.204;24.686;2024-02-21T07:20:03;4.10;;;3.50;;
7667;SDS011;3876;42.204;24.686;2024-02-21T07:22:30;9.03;;;3.90;;
7667;SDS011;3876;42.204;24.686;2024-02-21T07:24:57;9.53;;;4.17;;
7667;SDS011;3876;42.204;24.686;2024-02-21T07:27:24;4.87;;;4.57;;
7667;SDS011;3876;42.204;24.686;2024-02-21T07:29:53;3.97;;;3.57;;
7667;SDS011;3876;42.204;24.686;2024-02-21T07:32:20;9.07;;;5.03;;
7667;SDS011;3876;42.204;24.686;2024-02-21T07:34:48;3.33;;;3.03;;
7667;SDS011;3876;42.204;24.686;2024-02-21T07:37:14;8.40;;;4.50;;
7667;SDS011;3876;42.204;24.686;2024-02-21T07:39:41;6.80;;;4.87;;
7667;SDS011;3876;42.204;24.686;2024-02-21T07:42:08;10.93;;;5.13;;
7667;SDS011;3876;42.204;24.686;2024-02-21T07:44:34;6.17;;;4.07;;
7667;SDS011;3876;42.204;24.686;2024-02-21T07:47:01;3.63;;;3.43;;
7667;SDS011;3876;42.204;24.686;2024-02-21T07:49:28;6.30;;;4.43;;
7667;SDS011;3876;42.204;24.686;2024-02-21T07:51:56;9.50;;;5.13;;
7667;SDS011;3876;42.204;24.686;2024-02-21T07:54:22;12.87;;;4.00;;
7667;SDS011;3876;42.204;24.686;2024-02-21T07:56:49;5.43;;;3.47;;
7667;SDS011;3876;42.204;24.686;2024-02-21T07:59:16;7.57;;;4.23;;
7667;SDS011;3876;42.204;24.686;2024-02-21T08:01:43;6.97;;;5.07;;
7667;SDS011;3876;42.204;24.686;2024-02-21T08:04:10;5.83;;;4.10;;
7667;SDS011;3876;42.204;24.686;2024-02-21T08:06:37;5.27;;;4.83;;
7667;SDS011;3876;42.204;24.686;2024-02-21T08:09:05;6.03;;;4.97;;
7667;SDS011;3876;42.204;24.686;2024-02-21T08:11:32;6.00;;;3.13;;
7667;SDS011;3876;42.204;24.686;2024-02-21T08:13:58;5.07;;;3.90;;
7667;SDS011;3876;42.204;24.686;2024-02-21T08:16:26;3.50;;;2.97;;
7667;SDS011;3876;42.204;24.686;2024-02-21T08:18:53;7.37;;;3.40;;
7667;SDS011;3876;42.204;24.686;2024-02-21T08:21:19;7.30;;;3.93;;
7667;SDS011;3876;42.204;24.686;2024-02-21T08:23:46;3.67;;;3.47;;
7667;SDS011;3876;42.204;24.686;2024-02-21T08:26:18;6.20;;;3.17;;
7667;SDS011;3876;42.204;24.686;2024-02-21T08:28:44;7.23;;;3.13;;
7667;SDS011;3876;42.204;24.686;2024-02-21T08:31:11;2.87;;;2.57;;
7667;SDS011;3876;42.204;24.686;2024-02-21T08:33:45;2.73;;;2.63;;
7667;SDS011;3876;42.204;24.686;2024-02-21T08:36:16;3.30;;;2.20;;
7667;SDS011;3876;42.204;24.686;2024-02-21T08:38:44;2.93;;;2.43;;
7667;SDS011;3876;42.204;24.686;2024-02-21T08:41:11;3.60;;;2.73;;
7667;SDS011;3876;42.204;24.686;2024-02-21T08:43:39;2.97;;;2.77;;
7667;SDS011;3876;42.204;24.686;2024-02-21T08:46:06;1.97;;;1.83;;
7667;SDS011;3876;42.204;24.686;2024-02-21T08:48:33;1.73;;;1.63;;
7667;SDS011;3876;42.204;24.686;2024-02-21T08:51:00;1.50;;;1.33;;
7667;SDS011;3876;42.204;24.686;2024-02-21T08:53:27;1.37;;;1.23;;
7667;SDS011;3876;42.204;24.686;2024-02-21T08:55:54;11.60;;;2.33;;
7667;SDS011;3876;42.204;24.686;2024-02-21T08:58:20;1.00;;;1.00;;
7667;SDS011;3876;42.204;24.686;2024-02-21T09:00:50;3.20;;;1.93;;
7667;SDS011;3876;42.204;24.686;2024-02-21T09:03:17;1.87;;;1.60;;
7667;SDS011;3876;42.204;24.686;2024-02-21T09:05:45;1.60;;;1.50;;
7667;SDS011;3876;42.204;24.686;2024-02-21T09:08:11;1.27;;;1.27;;
7667;SDS011;3876;42.204;24.686;2024-02-21T09:10:39;2.57;;;2.47;;
7667;SDS011;3876;42.204;24.686;2024-02-21T09:13:06;1.97;;;1.90;;
7667;SDS011;3876;42.204;24.686;2024-02-21T09:15:33;3.27;;;1.80;;
7667;SDS011;3876;42.204;24.686;2024-02-21T09:18:02;2.93;;;1.50;;
7667;SDS011;3876;42.204;24.686;2024-02-21T09:20:30;2.40;;;1.70;;
7667;SDS011;3876;42.204;24.686;2024-02-21T09:22:56;2.33;;;1.70;;
7667;SDS011;3876;42.204;24.686;2024-02-21T09:25:23;1.60;;;1.53;;
7667;SDS011;3876;42.204;24.686;2024-02-21T09:27:50;2.63;;;2.43;;
7667;SDS011;3876;42.204;24.686;2024-02-21T09:30:17;1.87;;;1.63;;
7667;SDS011;3876;42.204;24.686;2024-02-21T09:32:45;2.73;;;1.77;;
7667;SDS011;3876;42.204;24.686;2024-02-21T09:35:13;3.23;;;2.97;;
7667;SDS011;3876;42.204;24.686;2024-02-21T09:37:41;2.57;;;2.37;;
7667;SDS011;3876;42.204;24.686;2024-02-21T09:40:09;2.17;;;2.03;;
7667;SDS011;3876;42.204;24.686;2024-02-21T09:42:36;2.97;;;2.87;;
7667;SDS011;3876;42.204;24.686;2024-02-21T09:45:07;2.77;;;2.50;;
7667;SDS011;3876;42.204;24.686;2024-02-21T09:47:39;2.97;;;1.60;;
7667;SDS011;3876;42.204;24.686;2024-02-21T09:50:10;1.80;;;1.70;;
7667;SDS011;3876;42.204;24.686;2024-02-21T09:52:39;2.20;;;2.00;;
7667;SDS011;3876;42.204;24.686;2024-02-21T09:55:06;1.90;;;1.80;;
7667;SDS011;3876;42.204;24.686;2024-02-21T09:57:36;2.03;;;1.70;;
7667;SDS011;3876;42.204;24.686;2024-02-21T10:00:05;3.17;;;2.07;;
7667;SDS011;3876;42.204;24.686;2024-02-21T10:02:33;1.90;;;1.80;;
7667;SDS011;3876;42.204;24.686;2024-02-21T10:05:00;2.00;;;1.73;;
7667;SDS011;3876;42.204;24.686;2024-02-21T10:07:29;2.63;;;1.53;;
7667;SDS011;3876;42.204;24.686;2024-02-21T10:10:02;2.80;;;2.60;;
7667;SDS011;3876;42.204;24.686;2024-02-21T10:12:29;2.30;;;1.73;;
7667;SDS011;3876;42.204;24.686;2024-02-21T10:15:02;3.87;;;2.20;;
7667;SDS011;3876;42.204;24.686;2024-02-21T10:17:29;1.57;;;1.57;;
7667;SDS011;3876;42.204;24.686;2024-02-21T10:20:06;2.47;;;2.37;;
7667;SDS011;3876;42.204;24.686;2024-02-21T10:22:33;2.93;;;2.73;;
7667;SDS011;3876;42.204;24.686;2024-02-21T10:25:07;1.87;;;1.77;;
7667;SDS011;3876;42.204;24.686;2024-02-21T10:27:34;1.30;;;1.30;;
7667;SDS011;3876;42.204;24.686;2024-02-21T10:30:02;2.07;;;1.97;;
7667;SDS011;3876;42.204;24.686;2024-02-21T10:36:05;2.13;;;2.03;;
7667;SDS011;3876;42.204;24.686;2024-02-21T10:38:34;1.63;;;1.53;;
7667;SDS011;3876;42.204;24.686;2024-02-21T10:41:03;2.40;;;1.80;;
7667;SDS011;3876;42.204;24.686;2024-02-21T10:43:32;1.77;;;1.67;;
7667;SDS011;3876;42.204;24.686;2024-02-21T10:46:05;1.90;;;1.80;;
7667;SDS011;3876;42.204;24.686;2024-02-21T10:48:33;2.27;;;2.17;;
7667;SDS011;3876;42.204;24.686;2024-02-21T10:51:12;2.37;;;2.33;;
7667;SDS011;3876;42.204;24.686;2024-02-21T10:53:44;1.87;;;1.77;;
7667;SDS011;3876;42.204;24.686;2024-02-21T10:56:16;1.83;;;1.73;;
7667;SDS011;3876;42.204;24.686;2024-02-21T10:58:49;1.10;;;1.10;;
7667;SDS011;3876;42.204;24.686;2024-02-21T11:01:17;1.80;;;1.70;;
7667;SDS011;3876;42.204;24.686;2024-02-21T11:03:45;2.03;;;1.60;;
7667;SDS011;3876;42.204;24.686;2024-02-21T11:06:14;1.60;;;1.50;;
7667;SDS011;3876;42.204;24.686;2024-02-21T11:08:42;1.67;;;1.57;;
7667;SDS011;3876;42.204;24.686;2024-02-21T11:11:11;2.43;;;2.23;;
7667;SDS011;3876;42.204;24.686;2024-02-21T11:13:43;2.27;;;2.07;;
7667;SDS011;3876;42.204;24.686;2024-02-21T11:16:11;1.83;;;1.73;;
7667;SDS011;3876;42.204;24.686;2024-02-21T11:18:47;1.57;;;1.47;;
7667;SDS011;3876;42.204;24.686;2024-02-21T11:21:14;1.20;;;1.20;;
7667;SDS011;3876;42.204;24.686;2024-02-21T11:23:40;1.53;;;1.40;;
7667;SDS011;3876;42.204;24.686;2024-02-21T11:26:07;2.30;;;2.20;;
7667;SDS011;3876;42.204;24.686;2024-02-21T11:28:35;1.80;;;1.70;;
7667;SDS011;3876;42.204;24.686;2024-02-21T11:31:10;2.77;;;1.87;;
7667;SDS011;3876;42.204;24.686;2024-02-21T11:33:40;1.77;;;1.73;;
7667;SDS011;3876;42.204;24.686;2024-02-21T11:36:07;1.47;;;1.37;;
7667;SDS011;3876;42.204;24.686;2024-02-21T11:38:34;1.77;;;1.67;;
7667;SDS011;3876;42.204;24.686;2024-02-21T11:41:01;2.33;;;2.20;;
7667;SDS011;3876;42.204;24.686;2024-02-21T11:43:28;1.90;;;1.80;;
7667;SDS011;3876;42.204;24.686;2024-02-21T11:45:59;1.70;;;1.60;;
7667;SDS011;3876;42.204;24.686;2024-02-21T11:48:30;3.53;;;2.23;;
7667;SDS011;3876;42.204;24.686;2024-02-21T11:50:57;1.53;;;1.43;;
7667;SDS011;3876;42.204;24.686;2024-02-21T11:53:25;2.23;;;2.10;;
7667;SDS011;3876;42.204;24.686;2024-02-21T11:55:56;1.37;;;1.27;;
7667;SDS011;3876;42.204;24.686;2024-02-21T11:58:23;2.20;;;2.03;;
7667;SDS011;3876;42.204;24.686;2024-02-21T12:00:50;1.73;;;1.63;;
7667;SDS011;3876;42.204;24.686;2024-02-21T12:03:18;1.73;;;1.63;;
7667;SDS011;3876;42.204;24.686;2024-02-21T12:05:47;5.07;;;1.97;;
7667;SDS011;3876;42.204;24.686;2024-02-21T12:08:16;1.50;;;1.40;;
7667;SDS011;3876;42.204;24.686;2024-02-21T12:10:44;1.40;;;1.40;;
7667;SDS011;3876;42.204;24.686;2024-02-21T12:13:16;1.60;;;1.50;;
7667;SDS011;3876;42.204;24.686;2024-02-21T12:15:47;0.80;;;0.80;;
7667;SDS011;3876;42.204;24.686;2024-02-21T12:18:14;2.23;;;1.83;;
7667;SDS011;3876;42.204;24.686;2024-02-21T12:20:40;1.83;;;1.43;;
7667;SDS011;3876;42.204;24.686;2024-02-21T12:23:10;1.30;;;1.30;;
7667;SDS011;3876;42.204;24.686;2024-02-21T12:25:37;1.50;;;1.37;;
7667;SDS011;3876;42.204;24.686;2024-02-21T12:28:05;1.53;;;1.47;;
7667;SDS011;3876;42.204;24.686;2024-02-21T12:30:32;2.00;;;1.83;;
7667;SDS011;3876;42.204;24.686;2024-02-21T12:33:00;1.80;;;1.70;;
7667;SDS011;3876;42.204;24.686;2024-02-21T12:35:27;1.80;;;1.77;;
7667;SDS011;3876;42.204;24.686;2024-02-21T12:37:56;1.27;;;1.17;;
7667;SDS011;3876;42.204;24.686;2024-02-21T12:40:24;1.63;;;1.60;;
7667;SDS011;3876;42.204;24.686;2024-02-21T12:42:51;1.43;;;1.43;;
7667;SDS011;3876;42.204;24.686;2024-02-21T12:45:18;1.47;;;1.37;;
7667;SDS011;3876;42.204;24.686;2024-02-21T12:47:45;1.57;;;1.47;;
7667;SDS011;3876;42.204;24.686;2024-02-21T12:50:11;1.80;;;1.47;;
7667;SDS011;3876;42.204;24.686;2024-02-21T12:52:40;4.20;;;0.87;;
7667;SDS011;3876;42.204;24.686;2024-02-21T12:55:07;1.27;;;1.17;;
7667;SDS011;3876;42.204;24.686;2024-02-21T12:57:37;1.60;;;1.50;;
7667;SDS011;3876;42.204;24.686;2024-02-21T13:00:05;1.40;;;1.40;;
7667;SDS011;3876;42.204;24.686;2024-02-21T13:02:34;1.30;;;1.30;;
7667;SDS011;3876;42.204;24.686;2024-02-21T13:05:00;3.33;;;1.60;;
7667;SDS011;3876;42.204;24.686;2024-02-21T13:07:28;1.20;;;1.20;;
7667;SDS011;3876;42.204;24.686;2024-02-21T13:09:57;1.97;;;1.70;;
7667;SDS011;3876;42.204;24.686;2024-02-21T13:12:23;2.23;;;1.27;;
7667;SDS011;3876;42.204;24.686;2024-02-21T13:14:54;1.47;;;1.47;;
7667;SDS011;3876;42.204;24.686;2024-02-21T13:17:20;1.70;;;1.60;;
7667;SDS011;3876;42.204;24.686;2024-02-21T13:19:48;1.20;;;1.20;;
7667;SDS011;3876;42.204;24.686;2024-02-21T13:22:14;1.07;;;1.07;;
7667;SDS011;3876;42.204;24.686;2024-02-21T13:24:45;1.27;;;1.27;;
7667;SDS011;3876;42.204;24.686;2024-02-21T13:27:12;1.10;;;1.10;;
7667;SDS011;3876;42.204;24.686;2024-02-21T13:29:38;1.20;;;1.20;;
7667;SDS011;3876;42.204;24.686;2024-02-21T13:32:07;2.10;;;1.57;;
7667;SDS011;3876;42.204;24.686;2024-02-21T13:34:33;1.73;;;1.73;;
7667;SDS011;3876;42.204;24.686;2024-02-21T13:37:00;1.93;;;1.83;;
7667;SDS011;3876;42.204;24.686;2024-02-21T13:39:28;2.77;;;1.30;;
7667;SDS011;3876;42.204;24.686;2024-02-21T13:41:55;1.40;;;1.40;;
7667;SDS011;3876;42.204;24.686;2024-02-21T13:44:23;1.33;;;1.30;;
7667;SDS011;3876;42.204;24.686;2024-02-21T13:46:50;1.40;;;1.30;;
7667;SDS011;3876;42.204;24.686;2024-02-21T13:49:18;1.77;;;1.67;;
7667;SDS011;3876;42.204;24.686;2024-02-21T13:51:45;2.43;;;1.90;;
7667;SDS011;3876;42.204;24.686;2024-02-21T13:54:11;3.23;;;1.93;;
7667;SDS011;3876;42.204;24.686;2024-02-21T13:56:42;1.93;;;1.83;;
7667;SDS011;3876;42.204;24.686;2024-02-21T13:59:09;1.73;;;1.63;;
7667;SDS011;3876;42.204;24.686;2024-02-21T14:01:35;1.07;;;1.07;;
7667;SDS011;3876;42.204;24.686;2024-02-21T14:04:02;1.50;;;1.40;;
7667;SDS011;3876;42.204;24.686;2024-02-21T14:06:30;1.37;;;1.37;;
7667;SDS011;3876;42.204;24.686;2024-02-21T14:08:57;1.30;;;1.30;;
7667;SDS011;3876;42.204;24.686;2024-02-21T14:11:24;1.37;;;1.30;;
7667;SDS011;3876;42.204;24.686;2024-02-21T14:13:52;3.00;;;2.60;;
7667;SDS011;3876;42.204;24.686;2024-02-21T14:16:22;4.13;;;3.90;;
7667;SDS011;3876;42.204;24.686;2024-02-21T14:18:49;2.73;;;2.60;;
7667;SDS011;3876;42.204;24.686;2024-02-21T14:21:15;3.40;;;3.20;;
7667;SDS011;3876;42.204;24.686;2024-02-21T14:23:43;6.10;;;2.40;;
7667;SDS011;3876;42.204;24.686;2024-02-21T14:26:10;2.10;;;2.00;;
7667;SDS011;3876;42.204;24.686;2024-02-21T14:28:37;3.93;;;3.63;;
7667;SDS011;3876;42.204;24.686;2024-02-21T14:31:04;3.03;;;2.30;;
7667;SDS011;3876;42.204;24.686;2024-02-21T14:33:35;3.27;;;2.97;;
7667;SDS011;3876;42.204;24.686;2024-02-21T14:36:02;2.60;;;2.43;;
7667;SDS011;3876;42.204;24.686;2024-02-21T14:38:29;4.40;;;3.53;;
7667;SDS011;3876;42.204;24.686;2024-02-21T14:40:57;3.20;;;2.63;;
7667;SDS011;3876;42.204;24.686;2024-02-21T14:43:24;1.97;;;1.87;;
7667;SDS011;3876;42.204;24.686;2024-02-21T14:45:51;2.60;;;2.40;;
7667;SDS011;3876;42.204;24.686;2024-02-21T14:48:18;2.00;;;1.90;;
7667;SDS011;3876;42.204;24.686;2024-02-21T14:50:46;2.53;;;1.63;;
7667;SDS011;3876;42.204;24.686;2024-02-21T14:53:13;2.67;;;2.47;;
7667;SDS011;3876;42.204;24.686;2024-02-21T14:55:40;2.30;;;2.20;;
7667;SDS011;3876;42.204;24.686;2024-02-21T14:58:08;3.20;;;2.60;;
7667;SDS011;3876;42.204;24.686;2024-02-21T15:00:36;2.70;;;2.60;;
7667;SDS011;3876;42.204;24.686;2024-02-21T15:03:03;2.33;;;2.23;;
7667;SDS011;3876;42.204;24.686;2024-02-21T15:05:30;2.73;;;2.53;;
7667;SDS011;3876;42.204;24.686;2024-02-21T15:07:58;1.93;;;1.83;;